• Join FlightAware (Why Join?)
  • Login
  • US Flag 
05:48PM EDT


 

Airport Tracker/Info


-or-


 

Live Flight TrackerFlight Track Log ✈ UAE435 ✈ 01-May-2012 ✈ NZAA / AKL - YBBN / BNE

Flight Track Log - Related Links

Times and Time Zones

All times are in EDT time to prevent confusion due to time zone crossing. See the UAE435 flight status page for this flight to view local times or setup timezone preferences in your user account.

Time Position Orientation Groundspeed Altitude Reporting Facility
EDT Latitude Longitude Course Direction KTS MPH feet Rate Location/Type
01:22AM -36.4741 173.2493 294° West  Level FlightAware Approximate
01:23AM -36.4384 173.1489 294° West  Level FlightAware Approximate
01:24AM -36.4026 173.0486 294° West  Level FlightAware Approximate
01:25AM -36.3668 172.9484 294° West  Level FlightAware Approximate
01:26AM -36.3308 172.8483 294° West  Level FlightAware Approximate
01:27AM -36.2948 172.7482 294° West  Level FlightAware Approximate
01:28AM -36.2587 172.6483 294° West  Level FlightAware Approximate
01:29AM -36.2225 172.5485 294° West  Level FlightAware Approximate
01:30AM -36.1862 172.4487 294° West  Level FlightAware Approximate
01:31AM -36.1498 172.3491 294° West  Level FlightAware Approximate
01:32AM -36.1134 172.2495 294° West  Level FlightAware Approximate
01:33AM -36.0768 172.1500 294° West  Level FlightAware Approximate
01:34AM -36.0402 172.0506 294° West  Level FlightAware Approximate
01:35AM -36.0035 171.9514 294° West  Level FlightAware Approximate
01:36AM -35.9667 171.8522 294° West  Level FlightAware Approximate
01:37AM -35.9299 171.7531 294° West  Level FlightAware Approximate
01:38AM -35.8929 171.6541 294° West  Level FlightAware Approximate
01:39AM -35.8559 171.5552 294° West  Level FlightAware Approximate
01:40AM -35.8188 171.4564 295° West  Level FlightAware Approximate
01:41AM -35.7816 171.3576 295° West  Level FlightAware Approximate
01:42AM -35.7444 171.2590 295° West  Level FlightAware Approximate
01:43AM -35.7070 171.1605 295° West  Level FlightAware Approximate
01:44AM -35.6696 171.0620 295° West  Level FlightAware Approximate
01:45AM -35.6326 170.9634 295° West  Level FlightAware Approximate
01:46AM -35.5955 170.8648 295° West  Level FlightAware Approximate
01:47AM -35.5583 170.7663 295° West  Level FlightAware Approximate
01:48AM -35.5211 170.6680 295° West  Level FlightAware Approximate
01:49AM -35.4838 170.5697 295° West  Level FlightAware Approximate
01:50AM -35.4464 170.4715 295° West  Level FlightAware Approximate
01:51AM -35.4089 170.3734 295° West  Level FlightAware Approximate
01:52AM -35.3713 170.2754 295° West  Level FlightAware Approximate
01:53AM -35.3337 170.1775 295° West  Level FlightAware Approximate
01:54AM -35.2960 170.0797 295° West  Level FlightAware Approximate
01:55AM -35.2582 169.9819 295° West  Level FlightAware Approximate
01:56AM -35.2203 169.8843 295° West  Level FlightAware Approximate
01:57AM -35.1823 169.7867 296° West  Level FlightAware Approximate
01:58AM -35.1443 169.6893 296° West  Level FlightAware Approximate
01:59AM -35.1062 169.5919 296° West  Level FlightAware Approximate
02:00AM -35.0680 169.4946 296° West  Level FlightAware Approximate
02:01AM -35.0297 169.3974 296° West  Level FlightAware Approximate
02:02AM -34.9914 169.3004 296° West  Level FlightAware Approximate
02:03AM -34.9530 169.2034 296° West  Level FlightAware Approximate
02:04AM -34.9145 169.1064 296° West  Level FlightAware Approximate
02:05AM -34.8759 169.0096 296° West  Level FlightAware Approximate
02:06AM -34.8372 168.9129 296° West  Level FlightAware Approximate
02:07AM -34.7985 168.8163 296° West  Level FlightAware Approximate
02:08AM -34.7597 168.7197 296° West  Level FlightAware Approximate
02:09AM -34.7208 168.6232 296° West  Level FlightAware Approximate
02:10AM -34.6819 168.5269 296° West  Level FlightAware Approximate
02:11AM -34.6428 168.4306 296° West  Level FlightAware Approximate
02:12AM -34.6037 168.3344 296° West  Level FlightAware Approximate
02:13AM -34.5645 168.2383 296° West  Level FlightAware Approximate
02:14AM -34.5253 168.1423 296° West  Level FlightAware Approximate
02:15AM -34.4860 168.0464 297° West  Level FlightAware Approximate
02:16AM -34.4465 167.9506 297° West  Level FlightAware Approximate
02:17AM -34.4071 167.8548 297° West  Level FlightAware Approximate
02:18AM -34.3675 167.7592 297° West  Level FlightAware Approximate
02:19AM -34.3279 167.6637 297° West  Level FlightAware Approximate
02:20AM -34.2882 167.5682 297° West  Level FlightAware Approximate
02:21AM -34.2484 167.4728 297° West  Level FlightAware Approximate
02:22AM -34.2085 167.3775 297° West  Level FlightAware Approximate
02:23AM -34.1686 167.2823 297° West  Level FlightAware Approximate
02:24AM -34.1286 167.1872 297° West  Level FlightAware Approximate
02:25AM -34.0885 167.0922 297° West  Level FlightAware Approximate
02:26AM -34.0484 166.9973 297° West  Level FlightAware Approximate
02:27AM -34.0082 166.9025 297° West  Level FlightAware Approximate
02:28AM -33.9679 166.8077 297° West  Level FlightAware Approximate
02:29AM -33.9275 166.7131 297° West  Level FlightAware Approximate
02:30AM -33.8871 166.6185 297° West  Level FlightAware Approximate
02:31AM -33.8465 166.5240 297° West  Level FlightAware Approximate
02:32AM -33.8060 166.4296 297° West  Level FlightAware Approximate
02:33AM -33.7653 166.3353 297° West  Level FlightAware Approximate
02:34AM -33.7246 166.2411 298° West  Level FlightAware Approximate
02:35AM -33.6838 166.1470 298° West  Level FlightAware Approximate
02:36AM -33.6429 166.0530 298° West  Level FlightAware Approximate
02:37AM -33.6020 165.9590 298° West  Level FlightAware Approximate
02:38AM -33.5610 165.8652 298° West  Level FlightAware Approximate
02:39AM -33.5199 165.7715 298° West  Level FlightAware Approximate
02:40AM -33.4787 165.6778 298° West  Level FlightAware Approximate
02:41AM -33.4375 165.5842 298° West  Level FlightAware Approximate
02:42AM -33.3962 165.4907 298° West  Level FlightAware Approximate
02:43AM -33.3549 165.3973 298° West  Level FlightAware Approximate
02:44AM -33.3134 165.3040 298° West  Level FlightAware Approximate
02:45AM -33.2719 165.2108 298° West  Level FlightAware Approximate
02:46AM -33.2304 165.1176 298° West  Level FlightAware Approximate
02:47AM -33.1887 165.0246 298° West  Level FlightAware Approximate
02:52AM -31.6265 161.7860 299° West 38,000  Level Aus ATC (Calculated)
02:52AM -31.6265 161.7860 299° West 38,000  Level Aus ATC (Calculated)
02:53AM -31.5872 161.7043 299° West 38,000  Level Aus ATC (Calculated)
02:55AM -31.5159 161.5485 300° West  Level FlightAware Approximate
02:56AM -31.4688 161.4458 300° West  Level FlightAware Approximate
02:57AM -31.4216 161.3433 300° West  Level FlightAware Approximate
02:58AM -31.3744 161.2409 300° West  Level FlightAware Approximate
02:59AM -31.3271 161.1385 300° West  Level FlightAware Approximate
03:03AM -30.8816 160.2687 300° West 38,000  Level Aus ATC (Calculated)
03:04AM -30.8531 160.2118 300° West 38,000  Level Aus ATC (Calculated)
03:08AM -30.5428 159.5980 300° West 38,000  Level Aus ATC (Calculated)
03:08AM -30.5428 159.5980 300° West 38,000  Level Aus ATC (Calculated)
03:13AM -30.1653 158.8638 301° West 38,000  Level Aus ATC (Calculated)
03:18AM -29.8076 158.1805 300° West 38,000  Level Aus ATC (Calculated)
03:22AM -29.5597 157.7135 123° Southeast 38,000  Level Aus ATC (Calculated)
03:23AM -29.4569 157.5215 122° Southeast 38,000  Level Aus ATC (Calculated)
03:28AM -29.0930 156.8488 122° Southeast 38,000  Level Aus ATC (Calculated)
03:32AM -28.8344 156.3775 122° Southeast 38,000 60 Level Aus ATC (Calculated)
03:33AM -28.7645 156.2511 122° Southeast 38,000 180 Level Aus ATC (Calculated)
03:34AM -29.6505 157.8739 302° West 422 486 38,400 360 Climbing Aus ATC (RADAR)
03:34AM -29.6129 157.8046 302° West 420 483 38,400  Level Aus ATC (RADAR)
03:36AM -29.5173 157.6265 298° West 422 486 38,400  Level Aus ATC (RADAR)
03:36AM -29.4798 157.5451 301° West 420 483 38,400  Level Aus ATC (RADAR)
03:37AM -29.4165 157.4252 303° West 425 489 38,400  Level Aus ATC (RADAR)
03:39AM -29.3451 157.2970 302° West 427 491 38,400  Level Aus ATC (RADAR)
03:39AM -29.3121 157.2374 302° West 427 491 38,400 -240 Level Aus ATC (RADAR)
03:40AM -29.2199 157.0684 303° West 430 495 38,000 -180 Descending Aus ATC (RADAR)
03:41AM -29.1648 156.9695 303° West 429 494 38,000  Level Aus ATC (RADAR)
03:42AM -29.1149 156.8807 302° West 429 494 38,000  Level Aus ATC (RADAR)
03:43AM -29.0767 156.8104 302° West 431 496 38,000  Level Aus ATC (RADAR)
03:44AM -29.0068 156.6814 305° West 426 490 38,000  Level Aus ATC (RADAR)
03:44AM -28.9595 156.6041 302° West 431 496 38,000 180 Level Aus ATC (RADAR)
03:45AM -28.9109 156.5146 302° West 429 494 38,300 180 Climbing Aus ATC (RADAR)
03:46AM -28.8726 156.4452 302° West 428 493 38,300  Level Aus ATC (RADAR)
03:47AM -28.7961 156.3074 302° West 427 491 38,300  Level Aus ATC (RADAR)
03:48AM -28.7355 156.1985 302° West 431 496 38,300  Level Aus ATC (RADAR)
03:48AM -28.6920 156.1191 302° West 431 496 38,300  Level Aus ATC (RADAR)
03:49AM -28.6483 156.0400 302° West 432 497 38,300  Level Aus ATC (RADAR)
03:50AM -28.5986 155.9505 303° West 433 498 38,300  Level Aus ATC (RADAR)
03:51AM -28.5429 155.8522 302° West 433 498 38,300  Level Aus ATC (RADAR)
03:52AM -28.4546 155.6940 302° West 432 497 38,300  Level Aus ATC (RADAR)
03:53AM -28.4064 155.6056 303° West 428 493 38,300  Level Aus ATC (RADAR)
03:54AM -28.3506 155.5081 303° West 430 495 38,300  Level Aus ATC (RADAR)
03:54AM -28.3116 155.4402 303° West 428 493 38,300  Level Aus ATC (RADAR)
03:55AM -28.2507 155.3330 302° West 429 494 38,300 -480 Level Aus ATC (RADAR)
03:56AM -28.2179 155.2739 303° West 434 499 37,700 -1,500 Descending Aus ATC (RADAR)
03:56AM -28.1847 155.2159 303° West 430 495 36,800 -1,980 Descending Aus ATC (RADAR)
03:57AM -28.0994 155.0659 303° West 411 473 34,100 -1,980 Descending Aus ATC (RADAR)
03:58AM -28.0376 154.9575 303° West 398 458 32,200 -1,980 Descending Aus ATC (RADAR)
03:59AM -27.9823 154.8605 303° West 391 450 30,400 -2,040 Descending Aus ATC (RADAR)
04:00AM -27.9476 154.8000 303° West 389 448 29,200 -1,980 Descending Aus ATC (RADAR)
04:01AM -27.8989 154.7154 303° West 376 433 27,600 -1,920 Descending Aus ATC (RADAR)
04:01AM -27.8653 154.6567 303° West 377 434 26,500 -1,860 Descending Aus ATC (RADAR)
04:02AM -27.8090 154.5581 303° West 365 420 24,700 -1,860 Descending Aus ATC (RADAR)
04:03AM -27.7486 154.4538 303° West 356 410 22,700 -1,800 Descending Aus ATC (RADAR)
04:04AM -27.7165 154.3984 303° West 355 409 21,700 -1,800 Descending Aus ATC (RADAR)
04:05AM -27.6801 154.3359 303° West 352 405 20,500 -1,800 Descending Aus ATC (RADAR)
04:05AM -27.6533 154.2895 303° West 348 400 19,600 -1,740 Descending Aus ATC (RADAR)
04:06AM -27.6177 154.2280 303° West 345 397 18,500 -1,740 Descending Aus ATC (RADAR)
04:06AM -27.5868 154.1748 303° West 342 394 17,500 -1,740 Descending Aus ATC (RADAR)
04:07AM -27.5338 154.0843 286° West 344 396 15,800 -1,680 Descending Aus ATC (RADAR)
04:09AM -27.5039 153.9662 280° West 334 384 13,900 -1,680 Descending Aus ATC (RADAR)
04:09AM -27.4931 153.8976 280° West 329 379 12,800 -1,680 Descending Aus ATC (RADAR)
04:10AM -27.4835 153.8379 281° West 326 375 11,800 -1,740 Descending Aus ATC (RADAR)
04:11AM -27.4681 153.7450 284° West 325 374 10,200 -1,680 Descending Aus ATC (RADAR)
04:12AM -27.4456 153.6407 307° West 283 326 8,300 -1,560 Descending Aus ATC (RADAR)
04:13AM -27.4131 153.5930 307° West 281 323 7,400 -1,320 Descending Aus ATC (RADAR)
04:13AM -27.3824 153.5471 307° West 273 314 6,600 -1,140 Descending Aus ATC (RADAR)
04:14AM -27.3518 153.5018 308° West 270 311 5,900 -1,140 Descending Aus ATC (RADAR)
04:15AM -27.3095 153.4402 307° West 269 310 4,800 -840 Descending Aus ATC (RADAR)
04:16AM -27.2752 153.3892 307° West 271 312 4,500 -420 Descending Aus ATC (RADAR)
04:16AM -27.2487 153.3499 307° West 266 306 4,300 -480 Descending Aus ATC (RADAR)
04:17AM -27.2136 153.2984 277° West 239 275 3,900 -600 Descending Aus ATC (RADAR)
04:18AM -27.2091 153.2582 258° West 219 252 3,500 -660 Descending Aus ATC (RADAR)
04:18AM -27.2164 153.2183 200° South 193 222 3,100 -720 Descending Aus ATC (RADAR)
04:19AM -27.2538 153.2033 207° Southwest 165 190 2,500 -660 Descending Aus ATC (RADAR)
04:20AM -27.2877 153.1839 207° Southwest 163 188 2,000 -780 Descending Aus ATC (RADAR)
04:21AM -27.3191 153.1659 206° Southwest 145 167 1,300 -900 Descending Aus ATC (RADAR)
04:21AM -27.3387 153.1549 206° Southwest 136 157 800 -900 Descending Aus ATC (RADAR)